Time;durP1;ratioP1;P1;durP2;ratioP2;P2;SDS_P1;SDS_P2;PMS_P1;PMS_P2;Temp;Humidity;BMP_temperature;BMP_pressure;BME280_temperature;BME280_humidity;BME280_pressure;Samples;Min_cycle;Max_cycle;Signal;HPM_P1;HPM_P2
2022/12/12 00:02:09;;;;;;;62.28;32.75;;;-1.30;99.90;;;-2.86;100.00;96645.94;5052782;28;20409;-73
2022/12/12 00:04:37;;;;;;;64.35;34.97;;;-1.40;99.90;;;-2.92;100.00;96641.47;5051884;28;20391;-74
2022/12/12 00:07:02;;;;;;;66.05;34.15;;;-1.40;99.90;;;-2.95;100.00;96647.03;5052782;28;20451;-73
2022/12/12 00:09:28;;;;;;;66.27;35.40;;;-1.40;99.90;;;-3.00;100.00;96651.94;5053347;28;20405;-73
2022/12/12 00:11:54;;;;;;;60.30;32.83;;;-1.50;99.90;;;-3.04;100.00;96645.56;5053339;28;20401;-73
2022/12/12 00:14:20;;;;;;;61.90;32.83;;;-1.50;99.90;;;-3.04;100.00;96653.31;5052376;28;20859;-73
2022/12/12 00:16:46;;;;;;;68.78;35.50;;;-1.50;99.90;;;-3.06;100.00;96653.50;5052476;28;20485;-73
2022/12/12 00:19:12;;;;;;;62.57;33.27;;;-1.50;99.90;;;-3.05;100.00;96651.72;5052496;28;20402;-72
2022/12/12 00:21:39;;;;;;;59.90;32.63;;;-1.50;99.90;;;-3.06;100.00;96652.69;5054248;28;20464;-72
2022/12/12 00:24:06;;;;;;;53.60;30.55;;;-1.50;99.90;;;-3.08;100.00;96650.28;5053294;28;20417;-73
2022/12/12 00:26:34;;;;;;;56.08;31.17;;;-1.60;99.90;;;-3.08;100.00;96652.88;5053469;28;20397;-73
2022/12/12 00:29:03;;;;;;;54.95;30.05;;;-1.60;99.90;;;-3.09;100.00;96646.13;5052257;28;20826;-73
2022/12/12 00:31:29;;;;;;;55.73;29.40;;;-1.60;99.90;;;-3.07;100.00;96648.50;5050798;28;20993;-74
2022/12/12 00:33:55;;;;;;;58.63;30.98;;;-1.50;99.90;;;-3.05;100.00;96651.72;5051288;28;20409;-74
2022/12/12 00:36:23;;;;;;;63.90;32.35;;;-1.50;99.90;;;-3.05;100.00;96652.50;5052067;28;20467;-72
2022/12/12 00:38:52;;;;;;;56.55;31.08;;;-1.50;99.90;;;-3.06;100.00;96655.28;5052103;28;20885;-73
2022/12/12 00:41:19;;;;;;;55.97;30.02;;;-1.50;99.90;;;-3.08;100.00;96650.28;5052125;28;20398;-72
2022/12/12 00:43:45;;;;;;;54.73;29.10;;;-1.50;99.90;;;-3.09;100.00;96651.28;5051136;28;20457;-72
2022/12/12 00:46:14;;;;;;;66.75;33.20;;;-1.60;99.90;;;-3.09;100.00;96658.25;5051930;28;20408;-72
2022/12/12 00:48:40;;;;;;;53.55;29.88;;;-1.60;99.90;;;-3.13;100.00;96662.97;5051820;28;20405;-73
2022/12/12 00:51:08;;;;;;;51.25;28.90;;;-1.60;99.90;;;-3.16;100.00;96663.38;5051805;28;20408;-72
2022/12/12 00:53:34;;;;;;;49.72;28.83;;;-1.60;99.90;;;-3.21;100.00;96660.50;5051036;28;20788;-73
2022/12/12 00:56:02;;;;;;;53.28;29.35;;;-1.70;99.90;;;-3.23;100.00;96652.09;5051768;28;20401;-73
2022/12/12 00:58:30;;;;;;;56.22;29.67;;;-1.70;99.90;;;-3.25;100.00;96656.69;5051826;28;20448;-73
2022/12/12 01:01:04;;;;;;;49.73;27.97;;;-1.70;99.90;;;-3.26;100.00;96670.59;5050106;28;20550;-73
2022/12/12 01:03:31;;;;;;;47.13;26.40;;;-1.70;99.90;;;-3.26;100.00;96660.25;5050760;28;20420;-73
2022/12/12 01:05:57;;;;;;;55.63;28.20;;;-1.70;99.90;;;-3.27;100.00;96659.44;5051515;28;20829;-72
2022/12/12 01:08:23;;;;;;;50.93;26.80;;;-1.70;99.90;;;-3.25;100.00;96664.44;5051574;28;20439;-73
2022/12/12 01:10:49;;;;;;;50.55;26.52;;;-1.70;99.90;;;-3.26;100.00;96657.66;5051543;28;20466;-73
2022/12/12 01:13:16;;;;;;;54.13;29.23;;;-1.70;99.90;;;-3.22;100.00;96659.69;5050675;28;20408;-73
2022/12/12 01:15:42;;;;;;;56.90;30.17;;;-1.70;99.90;;;-3.24;100.00;96660.88;5051557;28;20401;-73
2022/12/12 01:18:08;;;;;;;53.85;29.48;;;-1.70;99.90;;;-3.27;100.00;96659.44;5051409;28;20412;-73
2022/12/12 01:20:34;;;;;;;57.10;29.65;;;-1.70;99.90;;;-3.31;100.00;96665.19;5051226;28;20441;-73
2022/12/12 01:23:00;;;;;;;47.72;25.85;;;-1.80;99.90;;;-3.35;100.00;96656.16;5050436;28;20425;-73
2022/12/12 01:25:26;;;;;;;47.35;25.67;;;-1.80;99.90;;;-3.39;100.00;96655.75;5051276;28;20398;-73
2022/12/12 01:27:52;;;;;;;46.35;25.70;;;-1.90;99.90;;;-3.39;100.00;96660.91;5051244;28;20474;-73
2022/12/12 01:30:21;;;;;;;56.10;27.05;;;-1.80;99.90;;;-3.40;100.00;96664.47;5051003;28;20406;-73
2022/12/12 01:32:48;;;;;;;47.60;25.73;;;-1.90;99.90;;;-3.43;100.00;96667.41;5050270;28;20404;-73
2022/12/12 01:35:14;;;;;;;50.85;26.58;;;-1.90;99.90;;;-3.41;100.00;96664.66;5050964;28;20393;-72
2022/12/12 01:37:40;;;;;;;49.17;27.25;;;-1.90;99.90;;;-3.37;100.00;96671.06;5050919;28;20874;-73
2022/12/12 01:40:13;;;;;;;49.78;27.05;;;-1.80;99.90;;;-3.40;100.00;96659.31;5051080;28;20409;-73
2022/12/12 01:42:39;;;;;;;51.50;27.05;;;-1.80;99.90;;;-3.41;100.00;96662.88;5050662;28;20490;-73
2022/12/12 01:45:06;;;;;;;47.60;25.30;;;-1.90;99.90;;;-3.44;100.00;96659.84;5050733;28;20416;-73
2022/12/12 01:47:34;;;;;;;42.60;22.97;;;-1.90;99.90;;;-3.51;100.00;96667.53;5050879;28;20497;-73
2022/12/12 01:50:04;;;;;;;41.87;22.10;;;-2.00;99.90;;;-3.57;100.00;96660.50;5050949;28;20405;-74
2022/12/12 01:52:38;;;;;;;36.10;20.48;;;-2.00;99.90;;;-3.63;100.00;96666.38;5050631;28;20397;-73
2022/12/12 01:55:09;;;;;;;38.20;20.42;;;-2.10;99.90;;;-3.65;100.00;96665.75;5030095;28;20438;-73
2022/12/12 01:57:39;;;;;;;40.42;21.60;;;-2.10;99.90;;;-3.64;100.00;96675.13;5030785;28;20407;-74
2022/12/12 02:00:10;;;;;;;37.35;20.25;;;-2.10;99.90;;;-3.65;100.00;96681.28;5030811;28;20787;-73
2022/12/12 02:02:40;;;;;;;42.25;21.88;;;-2.10;99.90;;;-3.69;100.00;96678.25;5030536;28;20904;-73
2022/12/12 02:05:17;;;;;;;38.47;20.20;;;-2.10;99.90;;;-3.74;100.00;96680.56;5030512;28;20406;-73
2022/12/12 02:07:43;;;;;;;45.63;24.33;;;-2.10;99.90;;;-3.74;100.00;96674.56;5030634;28;20403;-73
2022/12/12 02:10:09;;;;;;;40.90;21.73;;;-2.20;99.90;;;-3.84;100.00;96669.69;5030603;28;20425;-73
2022/12/12 02:12:35;;;;;;;39.20;22.27;;;-2.30;99.90;;;-3.88;100.00;96678.78;5029745;28;20414;-74
2022/12/12 02:15:01;;;;;;;41.33;21.60;;;-2.30;99.90;;;-3.93;100.00;96676.72;5029742;28;20964;-73
2022/12/12 02:17:59;;;;;;;41.45;22.05;;;-2.30;99.90;;;-3.91;100.00;96673.97;5029280;28;20761;-73
2022/12/12 02:20:57;;;;;;;38.85;20.70;;;-2.40;99.90;;;-4.04;100.00;96681.53;5030336;28;20881;-73
2022/12/12 02:24:12;;;;;;;36.15;19.83;;;-2.40;99.90;;;-4.11;100.00;96681.44;5029586;28;20419;-74
2022/12/12 02:27:48;;;;;;;41.13;22.30;;;-2.50;99.90;;;-4.20;100.00;96671.34;5030365;28;20403;-73
2022/12/12 02:30:21;;;;;;;47.55;24.60;;;-2.60;99.90;;;-4.26;100.00;96674.63;5030104;28;20430;-74
2022/12/12 02:33:23;;;;;;;42.78;22.63;;;-2.70;99.90;;;-4.35;100.00;96666.94;5029492;28;20399;-73
2022/12/12 02:36:00;;;;;;;49.20;25.23;;;-2.70;99.90;;;-4.39;100.00;96675.25;5024491;28;20449;-73
2022/12/12 02:38:32;;;;;;;51.28;25.63;;;-2.80;99.90;;;-4.42;100.00;96691.88;5030266;28;20804;-73
2022/12/12 02:41:12;;;;;;;41.38;21.70;;;-2.80;99.90;;;-4.48;100.00;96692.59;5030082;28;20400;-72
2022/12/12 02:43:46;;;;;;;40.33;22.15;;;-2.80;99.90;;;-4.51;100.00;96698.09;5029170;28;20513;-73
2022/12/12 02:46:21;;;;;;;48.65;25.40;;;-2.90;99.90;;;-4.53;100.00;96691.50;5030139;28;20777;-73
2022/12/12 02:48:56;;;;;;;46.08;24.38;;;-2.90;99.90;;;-4.57;100.00;96692.81;5030048;28;20430;-73
2022/12/12 02:51:24;;;;;;;48.75;24.13;;;-2.90;99.90;;;-4.63;100.00;96690.94;5029937;28;20461;-73
2022/12/12 02:53:49;;;;;;;50.30;25.93;;;-3.00;99.90;;;-4.62;100.00;96688.19;5029044;28;20922;-73
2022/12/12 02:56:43;;;;;;;49.83;26.25;;;-3.00;99.90;;;-4.71;100.00;96689.22;5028612;28;20485;-74
2022/12/12 02:59:13;;;;;;;50.30;25.40;;;-3.10;99.90;;;-4.80;100.00;96690.25;5029946;28;20481;-72
2022/12/12 03:01:52;;;;;;;48.78;24.05;;;-3.10;99.90;;;-4.87;100.00;96687.53;5029747;28;20422;-73
2022/12/12 03:10:26;;;;;;;52.40;26.02;;;-3.30;99.90;;;-4.99;100.00;96688.13;5029747;28;20421;-73
2022/12/12 03:13:02;;;;;;;52.17;25.25;;;-3.30;99.90;;;-5.05;100.00;96689.63;5028917;28;20399;-73
2022/12/12 03:15:38;;;;;;;50.25;25.50;;;-3.30;99.90;;;-5.07;100.00;96691.56;5029715;28;20399;-73
2022/12/12 03:18:19;;;;;;;50.25;25.65;;;-3.40;99.90;;;-5.15;100.00;96687.25;5029755;28;20441;-74
2022/12/12 03:20:54;;;;;;;50.10;25.07;;;-3.40;99.90;;;-5.15;100.00;96691.59;5029696;28;20402;-73
2022/12/12 03:23:27;;;;;;;51.58;26.75;;;-3.50;99.90;;;-5.19;100.00;96687.75;5030375;28;20435;-73
2022/12/12 03:26:01;;;;;;;48.60;26.40;;;-3.50;99.90;;;-5.18;100.00;96697.09;5033553;28;20870;-73
2022/12/12 03:28:35;;;;;;;51.53;26.80;;;-3.50;99.90;;;-5.23;100.00;96699.38;5033589;28;20410;-73
2022/12/12 03:31:07;;;;;;;49.85;26.13;;;-3.50;99.90;;;-5.23;100.00;96699.38;5033407;28;20399;-73
2022/12/12 03:33:38;;;;;;;51.35;26.63;;;-3.60;99.90;;;-5.24;100.00;96700.34;5032566;28;20406;-73
2022/12/12 03:36:13;;;;;;;50.83;26.73;;;-3.60;99.90;;;-5.25;100.00;96693.56;5033471;28;20955;-73
2022/12/12 03:38:43;;;;;;;50.28;25.27;;;-3.60;99.90;;;-5.29;100.00;96700.06;5033310;28;20399;-73
2022/12/12 03:41:17;;;;;;;53.00;26.40;;;-3.60;99.90;;;-5.33;100.00;96696.19;5033302;28;20392;-73
2022/12/12 03:43:50;;;;;;;46.55;24.15;;;-3.60;99.90;;;-5.35;100.00;96693.81;5032319;28;20780;-73
2022/12/12 03:46:22;;;;;;;52.45;28.40;;;-3.70;99.90;;;-5.37;100.00;96697.53;5033174;28;20765;-73
2022/12/12 03:48:54;;;;;;;57.20;29.02;;;-3.70;99.90;;;-5.32;100.00;96695.22;5033353;28;20403;-73
2022/12/12 03:51:27;;;;;;;51.27;26.50;;;-3.70;99.90;;;-5.41;100.00;96686.72;5033225;28;20490;-73
2022/12/12 03:53:59;;;;;;;58.67;29.83;;;-3.70;99.90;;;-5.40;100.00;96697.84;5032154;28;20406;-73
2022/12/12 03:56:33;;;;;;;57.40;29.83;;;-3.70;99.90;;;-5.39;100.00;96699.44;5033180;28;20407;-72
2022/12/12 03:59:05;;;;;;;54.38;29.08;;;-3.70;99.90;;;-5.46;100.00;96707.06;5033123;28;20430;-73
2022/12/12 04:01:39;;;;;;;49.53;26.52;;;-3.80;99.90;;;-5.48;100.00;96706.41;5032848;28;20406;-72
2022/12/12 04:04:13;;;;;;;54.08;28.73;;;-3.80;99.90;;;-5.47;100.00;96702.88;5031895;28;20985;-72
2022/12/12 04:06:47;;;;;;;59.17;31.08;;;-3.80;99.90;;;-5.48;100.00;96702.06;5032919;28;20816;-72
2022/12/12 04:15:26;;;;;;;65.55;33.50;;;-3.80;99.90;;;-5.47;100.00;96706.25;5031804;28;20390;-73
2022/12/12 04:18:09;;;;;;;62.38;32.80;;;-3.80;99.90;;;-5.44;100.00;96706.91;5032568;28;20930;-73
2022/12/12 04:23:38;;;;;;;73.88;36.30;;;-3.70;99.90;;;-5.35;100.00;96713.63;5031618;28;20414;-73
2022/12/12 04:29:08;;;;;;;72.57;35.88;;;-3.70;99.90;;;-5.33;100.00;96716.81;5032492;28;20394;-74
2022/12/12 04:31:39;;;;;;;74.38;37.10;;;-3.70;99.90;;;-5.30;100.00;96716.50;5032295;28;20475;-73
2022/12/12 04:34:13;;;;;;;72.77;38.17;;;-3.70;99.90;;;-5.24;100.00;96723.56;5031091;28;20860;-73
2022/12/12 04:36:40;;;;;;;72.95;37.88;;;-3.60;99.90;;;-5.23;100.00;96715.66;5032207;28;20407;-74
2022/12/12 04:39:10;;;;;;;80.03;40.22;;;-3.60;99.90;;;-5.18;100.00;96712.56;5032310;28;20918;-74
2022/12/12 04:41:39;;;;;;;76.68;38.70;;;-3.60;99.90;;;-5.19;100.00;96716.94;5032136;28;20912;-74
2022/12/12 04:44:10;;;;;;;81.60;39.23;;;-3.50;99.90;;;-5.15;100.00;96719.97;5029984;28;20805;-74
2022/12/12 04:46:38;;;;;;;77.85;39.20;;;-3.50;99.90;;;-5.12;100.00;96727.38;5032196;28;20396;-72
2022/12/12 04:49:13;;;;;;;83.03;40.72;;;-3.50;99.90;;;-5.05;100.00;96728.31;5032838;28;20407;-73
2022/12/12 04:51:43;;;;;;;81.68;39.85;;;-3.40;99.90;;;-4.97;100.00;96720.53;5051570;28;20397;-74
2022/12/12 04:56:55;;;;;;;73.53;38.50;;;-3.30;99.90;;;-4.85;100.00;96728.69;5029938;28;20423;-71
2022/12/12 04:59:21;;;;;;;78.03;39.67;;;-3.30;99.90;;;-4.72;100.00;96731.50;5032193;28;20430;-72
2022/12/12 05:01:54;;;;;;;78.03;41.63;;;-3.20;99.90;;;-4.59;100.00;96730.94;5030491;28;20434;-72
2022/12/12 05:04:26;;;;;;;81.85;41.40;;;-3.10;99.90;;;-4.58;100.00;96729.94;5030100;28;20926;-72
2022/12/12 05:07:00;;;;;;;73.60;39.40;;;-3.00;99.90;;;-4.61;100.00;96725.94;5023030;28;21117;-70
2022/12/12 05:09:28;;;;;;;77.90;40.33;;;-3.00;99.90;;;-4.58;100.00;96729.94;5020385;28;20409;-70
2022/12/12 05:11:53;;;;;;;77.88;40.50;;;-3.00;99.90;;;-4.51;100.00;96723.91;5021691;28;20781;-70
2022/12/12 05:14:19;;;;;;;79.00;41.42;;;-3.00;99.90;;;-4.42;100.00;96729.81;5018306;28;20413;-70
2022/12/12 05:16:49;;;;;;;80.93;41.40;;;-2.90;99.90;;;-4.41;100.00;96734.00;5021853;28;20410;-71
2022/12/12 05:19:15;;;;;;;79.05;41.17;;;-2.90;99.90;;;-4.45;100.00;96738.75;5021910;28;20893;-71
2022/12/12 05:21:41;;;;;;;81.55;41.08;;;-2.90;99.90;;;-4.48;100.00;96744.25;5020159;28;20401;-70
2022/12/12 05:24:07;;;;;;;75.70;37.70;;;-2.90;99.90;;;-4.45;100.00;96740.50;5020605;28;20411;-70
2022/12/12 05:26:35;;;;;;;75.65;39.75;;;-2.90;99.90;;;-4.47;100.00;96732.94;5011576;28;20455;-71
2022/12/12 05:29:02;;;;;;;79.03;40.42;;;-2.90;99.90;;;-4.45;100.00;96738.75;5011697;28;20420;-71
2022/12/12 05:31:28;;;;;;;77.15;40.13;;;-2.90;99.90;;;-4.44;100.00;96737.75;5011483;28;20488;-71
2022/12/12 05:33:54;;;;;;;73.85;38.90;;;-2.90;99.90;;;-4.48;100.00;96736.50;5010722;28;20496;-71
2022/12/12 05:36:20;;;;;;;73.82;39.75;;;-2.90;99.90;;;-4.51;100.00;96736.81;5011293;28;20408;-71
2022/12/12 05:38:46;;;;;;;75.28;39.42;;;-3.00;99.90;;;-4.49;100.00;96739.25;5013883;28;20549;-71
2022/12/12 05:41:12;;;;;;;77.05;40.70;;;-2.90;99.90;;;-4.44;100.00;96735.19;5028208;28;20413;-71
2022/12/12 05:43:39;;;;;;;77.15;39.72;;;-2.90;99.90;;;-4.44;100.00;96744.72;5018619;28;20941;-72
2022/12/12 05:46:06;;;;;;;72.07;38.75;;;-2.90;99.90;;;-4.42;100.00;96746.13;5021241;28;20418;-71
2022/12/12 05:48:32;;;;;;;73.68;39.40;;;-2.90;99.90;;;-4.42;100.00;96747.91;5020908;28;20419;-71
2022/12/12 05:51:00;;;;;;;74.60;39.20;;;-2.90;99.90;;;-4.42;100.00;96743.53;5019641;28;20483;-71
2022/12/12 05:53:26;;;;;;;73.95;39.20;;;-2.90;99.90;;;-4.39;100.00;96742.41;5020218;28;20818;-71
2022/12/12 05:55:52;;;;;;;73.60;38.60;;;-2.80;99.90;;;-4.42;100.00;96743.53;5025586;28;20417;-71
2022/12/12 05:58:19;;;;;;;80.13;40.35;;;-2.90;99.90;;;-4.38;100.00;96737.06;5018984;28;20500;-73
2022/12/12 06:00:48;;;;;;;79.07;42.03;;;-2.80;99.90;;;-4.30;100.00;96744.75;5015827;28;20822;-72
2022/12/12 06:03:15;;;;;;;76.78;39.85;;;-2.70;99.90;;;-4.31;100.00;96748.31;5017443;28;20828;-72
2022/12/12 06:05:41;;;;;;;77.03;40.42;;;-2.70;99.90;;;-4.34;100.00;96743.47;5029808;28;20485;-73
2022/12/12 06:08:07;;;;;;;73.70;38.33;;;-2.80;99.90;;;-4.36;100.00;96750.59;5018533;28;20479;-73
2022/12/12 06:10:33;;;;;;;68.15;37.63;;;-2.80;99.90;;;-4.39;100.00;96753.53;5018337;28;20881;-72
2022/12/12 06:13:00;;;;;;;71.85;38.15;;;-2.80;99.90;;;-4.40;100.00;96754.50;5008014;28;20441;-72
2022/12/12 06:15:26;;;;;;;68.75;38.17;;;-2.90;99.90;;;-4.38;100.00;96752.56;5009716;28;20400;-72
2022/12/12 06:17:53;;;;;;;77.63;40.45;;;-2.90;99.90;;;-4.39;100.00;96758.69;5010703;28;20762;-72
2022/12/12 06:20:19;;;;;;;74.50;37.97;;;-2.80;99.90;;;-4.40;100.00;96759.69;5010658;28;20409;-73
2022/12/12 06:22:45;;;;;;;72.97;39.30;;;-2.80;99.90;;;-4.39;100.00;96763.06;5009583;28;20937;-72
2022/12/12 06:25:11;;;;;;;73.60;39.13;;;-2.80;99.90;;;-4.30;100.00;96764.63;5010515;28;20487;-71
2022/12/12 06:27:37;;;;;;;73.38;39.67;;;-2.80;99.90;;;-4.28;100.00;96763.44;5010502;28;20424;-71
2022/12/12 06:30:05;;;;;;;75.00;38.83;;;-2.80;99.90;;;-4.28;100.00;96760.06;5010526;28;20401;-70
2022/12/12 06:32:31;;;;;;;72.87;39.50;;;-2.80;99.90;;;-4.24;100.00;96768.28;5010274;28;20514;-71
2022/12/12 06:34:59;;;;;;;78.22;40.70;;;-2.70;99.90;;;-4.24;100.00;96770.88;5009382;28;20863;-72
2022/12/12 06:37:25;;;;;;;74.43;38.45;;;-2.60;99.90;;;-4.31;100.00;96763.81;5010292;28;20550;-72
2022/12/12 06:39:51;;;;;;;72.68;38.72;;;-2.70;99.90;;;-4.34;100.00;96769.31;5010251;28;20401;-72
2022/12/12 06:42:17;;;;;;;71.72;37.30;;;-2.80;99.90;;;-4.36;100.00;96767.91;5010255;28;20431;-72
2022/12/12 06:44:43;;;;;;;68.50;37.30;;;-2.80;99.90;;;-4.39;100.00;96763.06;5009324;28;20973;-72
2022/12/12 06:47:09;;;;;;;76.70;39.63;;;-2.80;99.90;;;-4.38;100.00;96762.09;5009183;28;20487;-72
2022/12/12 06:49:35;;;;;;;71.93;37.35;;;-2.80;99.90;;;-4.34;100.00;96766.72;5010189;28;20882;-72
2022/12/12 06:52:02;;;;;;;74.22;40.50;;;-2.80;99.90;;;-4.31;100.00;96768.16;5010217;28;20403;-72
2022/12/12 06:54:28;;;;;;;76.18;40.90;;;-2.80;99.90;;;-4.30;100.00;96778.34;5009583;28;21056;-72
2022/12/12 06:56:54;;;;;;;74.37;39.87;;;-2.70;99.90;;;-4.31;100.00;96775.91;5029825;28;20410;-72
2022/12/12 06:59:20;;;;;;;75.70;39.80;;;-2.70;99.90;;;-4.32;100.00;96780.28;5029452;28;20431;-71
2022/12/12 07:01:46;;;;;;;74.63;40.92;;;-2.70;99.90;;;-4.32;100.00;96785.44;5029716;28;20403;-72
2022/12/12 07:04:12;;;;;;;71.73;38.03;;;-2.70;99.90;;;-4.32;100.00;96790.63;5028766;28;20426;-72
2022/12/12 07:06:39;;;;;;;77.65;41.38;;;-2.80;99.90;;;-4.33;100.00;96791.59;5029576;28;20414;-72
2022/12/12 07:09:07;;;;;;;71.85;40.00;;;-2.80;99.90;;;-4.35;100.00;96788.38;5011919;28;20494;-72
2022/12/12 07:11:33;;;;;;;69.40;37.90;;;-2.80;99.90;;;-4.34;100.00;96792.56;5029538;28;20750;-71
2022/12/12 07:14:01;;;;;;;75.32;40.22;;;-2.80;99.90;;;-4.30;100.00;96793.03;5028903;28;20414;-72
2022/12/12 07:16:27;;;;;;;72.38;39.45;;;-2.80;99.90;;;-4.28;100.00;96797.03;5029649;28;20454;-72
2022/12/12 07:18:53;;;;;;;74.68;40.50;;;-2.70;99.90;;;-4.26;100.00;96796.88;5029628;28;20833;-72
2022/12/12 07:21:19;;;;;;;72.85;37.50;;;-2.70;99.90;;;-4.25;100.00;96800.25;5029588;28;20403;-72
2022/12/12 07:23:46;;;;;;;70.80;37.22;;;-2.70;99.90;;;-4.24;100.00;96799.28;5028646;28;20415;-72
2022/12/12 07:26:17;;;;;;;69.85;39.55;;;-2.70;99.90;;;-4.22;100.00;96802.50;5029449;28;20543;-72
2022/12/12 07:28:43;;;;;;;71.40;38.50;;;-2.70;99.90;;;-4.19;100.00;96805.53;5029624;28;20426;-72
2022/12/12 07:31:11;;;;;;;69.95;38.53;;;-2.60;99.90;;;-4.17;100.00;96801.00;5011822;28;20987;-72
2022/12/12 07:33:38;;;;;;;70.30;39.67;;;-2.60;99.90;;;-4.16;100.00;96802.63;5028601;28;20395;-71
2022/12/12 07:36:04;;;;;;;79.45;44.38;;;-2.60;99.90;;;-4.03;100.00;96807.19;5011486;28;20837;-72
2022/12/12 07:38:31;;;;;;;69.90;38.63;;;-2.60;99.90;;;-4.08;100.00;96810.31;5029686;28;20403;-72
2022/12/12 07:41:03;;;;;;;75.22;40.92;;;-2.50;99.90;;;-4.02;100.00;96812.19;5029289;28;20469;-72
2022/12/12 07:43:30;;;;;;;70.57;39.75;;;-2.50;99.90;;;-4.05;100.00;96812.53;5028438;28;20425;-72
2022/12/12 07:45:56;;;;;;;77.05;41.75;;;-2.50;99.90;;;-4.00;100.00;96817.19;5029240;28;20501;-72
2022/12/12 07:48:22;;;;;;;75.53;40.13;;;-2.50;99.90;;;-3.93;100.00;96820.69;5029447;28;20402;-72
2022/12/12 07:50:49;;;;;;;74.18;39.47;;;-2.40;99.90;;;-3.96;100.00;96818.44;5011591;28;20465;-71
2022/12/12 07:53:14;;;;;;;72.30;39.78;;;-2.40;99.90;;;-3.96;100.00;96818.44;5028401;28;20406;-72
2022/12/12 07:55:40;;;;;;;78.60;43.17;;;-2.40;99.90;;;-3.95;100.00;96812.28;5029210;28;20411;-72
2022/12/12 07:58:06;;;;;;;78.32;44.50;;;-2.40;99.90;;;-3.83;100.00;96815.28;5029262;28;20406;-71
2022/12/12 08:00:33;;;;;;;71.67;38.57;;;-2.30;99.90;;;-3.84;100.00;96809.31;5029159;28;20407;-72
2022/12/12 08:03:00;;;;;;;71.32;39.50;;;-2.30;99.90;;;-3.84;100.00;96814.47;5028154;28;20414;-72
2022/12/12 08:05:26;;;;;;;62.80;36.00;;;-2.30;99.90;;;-3.81;100.00;96818.47;5029179;28;20458;-72
2022/12/12 08:07:52;;;;;;;68.43;38.88;;;-2.30;99.90;;;-3.78;100.00;96820.72;5011278;28;20403;-72
2022/12/12 08:10:18;;;;;;;69.70;39.90;;;-2.30;99.90;;;-3.75;100.00;96825.53;5030327;28;20494;-72
2022/12/12 08:12:44;;;;;;;70.00;40.07;;;-2.20;99.90;;;-3.72;100.00;96828.59;5014417;28;20815;-72
2022/12/12 08:15:15;;;;;;;67.10;39.30;;;-2.20;99.90;;;-3.67;100.00;96828.03;5032695;28;20403;-72
2022/12/12 08:17:43;;;;;;;66.35;38.85;;;-2.20;99.90;;;-3.63;100.00;96832.72;5032744;28;20437;-72
2022/12/12 08:20:10;;;;;;;71.28;40.10;;;-2.10;99.90;;;-3.61;100.00;96832.53;5032680;28;20502;-72
2022/12/12 08:22:36;;;;;;;70.43;40.15;;;-2.10;99.90;;;-3.59;100.00;96833.94;5032471;28;20500;-71
2022/12/12 08:25:02;;;;;;;65.45;39.80;;;-2.10;99.90;;;-3.55;100.00;96837.00;5031912;28;20772;-72
2022/12/12 08:27:29;;;;;;;66.85;40.55;;;-2.00;99.90;;;-3.52;100.00;96845.19;5032394;28;20410;-72
2022/12/12 08:29:55;;;;;;;75.13;43.17;;;-2.00;99.90;;;-3.42;100.00;96844.16;5032374;28;20411;-72
2022/12/12 08:32:21;;;;;;;69.20;39.97;;;-1.90;99.90;;;-3.39;100.00;96841.22;5032289;28;20453;-72
2022/12/12 08:34:48;;;;;;;75.88;42.88;;;-1.90;99.90;;;-3.34;100.00;96847.47;5031537;28;20812;-72
2022/12/12 08:37:14;;;;;;;75.93;42.83;;;-1.90;99.90;;;-3.21;100.00;96846.84;5032455;28;20410;-72
2022/12/12 08:39:40;;;;;;;68.35;40.50;;;-1.70;99.90;;;-3.32;100.00;96853.28;5032188;28;20404;-72
2022/12/12 08:42:06;;;;;;;63.40;37.63;;;-1.80;99.90;;;-3.33;100.00;96846.50;5032297;28;20548;-72
2022/12/12 08:44:32;;;;;;;64.47;38.50;;;-1.90;99.90;;;-3.26;100.00;96852.56;5030951;28;20422;-72
2022/12/12 08:46:58;;;;;;;68.45;37.85;;;-1.80;99.90;;;-3.34;100.00;96859.59;5032185;28;20399;-72
2022/12/12 08:49:24;;;;;;;69.47;40.70;;;-1.80;99.90;;;-3.06;100.00;96845.06;5032171;28;20435;-72
2022/12/12 08:51:51;;;;;;;66.13;37.70;;;-1.60;99.90;;;-3.14;100.00;96855.50;5031874;28;20449;-72
2022/12/12 08:54:17;;;;;;;64.20;37.72;;;-1.60;99.90;;;-3.06;100.00;96849.44;5030643;28;20417;-72
2022/12/12 08:56:49;;;;;;;59.75;36.97;;;-1.60;99.90;;;-3.04;100.00;96850.06;5036864;28;20406;-72
2022/12/12 08:59:15;;;;;;;69.22;38.78;;;-1.60;99.90;;;-2.99;100.00;96858.91;5039266;28;20489;-73
2022/12/12 09:01:41;;;;;;;57.15;34.60;;;-1.50;99.90;;;-2.92;100.00;96851.22;5031328;28;20889;-73
2022/12/12 09:04:07;;;;;;;57.50;35.47;;;-1.40;99.90;;;-2.88;100.00;96855.88;5030609;28;20411;-73
2022/12/12 09:06:33;;;;;;;64.43;37.77;;;-1.40;99.90;;;-2.84;100.00;96856.28;5031358;28;20446;-73
2022/12/12 09:09:00;;;;;;;60.50;35.72;;;-1.40;99.90;;;-2.83;100.00;96861.31;5031350;28;20441;-73
2022/12/12 09:11:26;;;;;;;61.03;36.95;;;-1.30;99.90;;;-2.89;100.00;96862.03;5031144;28;20407;-73
2022/12/12 09:13:52;;;;;;;62.08;37.10;;;-1.40;99.90;;;-2.88;100.00;96863.63;5031324;28;20408;-74
2022/12/12 09:16:20;;;;;;;56.80;34.20;;;-1.40;99.90;;;-2.95;100.00;96867.94;5030761;28;20411;-73
2022/12/12 09:18:46;;;;;;;65.55;36.88;;;-1.50;99.90;;;-2.86;100.00;96866.06;5032642;28;20931;-72
2022/12/12 09:21:12;;;;;;;63.85;37.63;;;-1.40;99.90;;;-2.81;100.00;96868.91;5030967;28;20422;-73
2022/12/12 09:23:38;;;;;;;58.72;35.08;;;-1.40;99.90;;;-2.95;100.00;96880.88;5030524;28;20430;-73
2022/12/12 09:26:07;;;;;;;60.05;35.25;;;-1.50;99.90;;;-2.99;100.00;96882.19;5036325;28;20403;-73
2022/12/12 09:28:34;;;;;;;55.40;34.10;;;-1.60;99.90;;;-2.93;100.00;96880.69;5036521;28;20491;-72
2022/12/12 09:31:02;;;;;;;61.37;37.13;;;-1.50;99.90;;;-2.85;100.00;96883.16;5051188;28;20438;-73
2022/12/12 09:33:28;;;;;;;66.60;38.65;;;-1.40;99.90;;;-2.76;100.00;96885.50;5050281;28;20405;-72
2022/12/12 09:35:59;;;;;;;62.25;36.95;;;-1.30;99.90;;;-2.72;100.00;96874.78;5051055;28;20427;-73
2022/12/12 09:38:26;;;;;;;63.03;37.53;;;-1.30;99.90;;;-2.75;100.00;96874.16;5051291;28;20461;-72
2022/12/12 09:40:57;;;;;;;58.85;35.50;;;-1.30;99.90;;;-2.71;100.00;96882.38;5052288;28;20421;-72
2022/12/12 09:43:30;;;;;;;59.95;35.28;;;-1.30;99.90;;;-2.67;100.00;96878.44;5052433;28;20405;-73
2022/12/12 09:45:57;;;;;;;66.57;39.13;;;-1.30;99.90;;;-2.54;100.00;96877.78;5034443;28;20778;-73
2022/12/12 09:48:34;;;;;;;66.30;38.92;;;-1.10;99.90;;;-2.46;100.00;96872.50;5051053;28;20405;-73
2022/12/12 09:51:00;;;;;;;61.35;37.17;;;-1.00;99.90;;;-2.37;100.00;96872.22;5050890;28;20399;-73
2022/12/12 09:53:27;;;;;;;57.07;35.67;;;-1.00;99.90;;;-2.30;100.00;96869.69;5049846;28;20397;-73
2022/12/12 09:56:02;;;;;;;52.45;33.60;;;-0.80;99.90;;;-2.18;100.00;96865.63;5032605;28;20405;-73
2022/12/12 09:58:36;;;;;;;52.15;32.97;;;-0.70;99.90;;;-2.05;100.00;96868.38;5050716;28;20394;-73
2022/12/12 10:01:11;;;;;;;71.55;40.00;;;-0.60;99.90;;;-1.82;100.00;96860.41;5050534;28;20398;-73
2022/12/12 10:03:53;;;;;;;55.53;34.92;;;-0.40;99.90;;;-1.74;100.00;96867.28;5049663;28;20456;-73
2022/12/12 10:06:21;;;;;;;58.28;33.97;;;-0.30;99.90;;;-1.71;100.00;96861.69;5050557;28;20444;-73
2022/12/12 10:09:01;;;;;;;52.97;33.50;;;-0.30;99.90;;;-1.45;100.00;96864.50;5032398;28;20480;-72
2022/12/12 10:11:50;;;;;;;58.53;36.78;;;-0.10;99.90;;;-1.12;100.00;96863.91;5050155;28;20401;-72
2022/12/12 10:14:26;;;;;;;46.92;29.88;;;0.20;99.90;;;-1.12;100.00;96866.50;5049349;28;20386;-72
2022/12/12 10:16:54;;;;;;;54.30;32.92;;;0.30;99.90;;;-1.03;100.00;96866.19;5050349;28;20401;-72
2022/12/12 10:19:26;;;;;;;55.47;34.35;;;0.40;99.90;;;-0.80;100.00;96858.13;5050322;28;20879;-72
2022/12/12 10:21:55;;;;;;;48.20;31.88;;;0.60;99.90;;;-0.81;100.00;96859.91;5050250;28;20398;-73
2022/12/12 10:24:31;;;;;;;45.10;29.70;;;0.70;99.90;;;-0.73;100.00;96861.56;5049285;28;20414;-73
2022/12/12 10:26:59;;;;;;;46.08;29.30;;;0.60;99.90;;;-0.43;100.00;96862.06;5050199;28;20439;-72
2022/12/12 10:29:27;;;;;;;44.90;29.17;;;0.90;99.90;;;-0.25;100.00;96866.75;5050137;28;20397;-72
2022/12/12 10:32:02;;;;;;;47.08;27.63;;;1.10;99.90;;;-0.19;100.00;96869.38;5049989;28;20567;-72